Time,TemperatureF,DewpointF,PressureIn,WindDirection,WindDirectionDegrees,WindSpeedMPH,WindSpeedGustMPH,Humidity,HourlyPrecipIn,Conditions,Clouds,dailyrainin,SolarRadiationWatts/m^2,SoftwareType,DateUTC
2013-04-02 00:00:00,39.0,37.0,29.99,North,0,0.0,-999.0,92,-99.99,,,-99.99,1.370000,,2013-04-02 06:00:00,
2013-04-02 00:52:00,39.0,37.0,29.99,North,0,0.0,-999.0,92,-99.99,,,-99.99,1.370000,,2013-04-02 06:52:00,
2013-04-02 02:00:00,39.0,37.0,30.00,North,0,0.0,0.0,92,-99.99,,,-99.99,1.500000,,2013-04-02 08:00:00,
2013-04-02 03:00:00,39.0,38.0,29.99,North,0,0.0,-999.0,94,-99.99,,,-99.99,1.360000,,2013-04-02 09:00:00,
2013-04-02 03:52:00,39.0,38.0,29.99,North,0,0.0,-999.0,94,-99.99,,,-99.99,1.360000,,2013-04-02 09:52:00,
2013-04-02 04:00:00,38.0,37.0,29.98,North,0,0.0,-999.0,96,-99.99,,,-99.99,1.360000,,2013-04-02 10:00:00,
2013-04-02 04:52:00,38.0,37.0,29.98,North,0,0.0,-999.0,96,-99.99,,,-99.99,1.360000,,2013-04-02 10:52:00,
2013-04-02 05:00:00,38.0,37.0,29.98,North,0,0.0,0.0,96,-99.99,,,-99.99,1.400000,,2013-04-02 11:00:00,
2013-04-02 06:00:00,38.0,36.0,29.99,North,0,0.0,-999.0,92,-99.99,,,-99.99,0.160000,,2013-04-02 12:00:00,
2013-04-02 06:52:00,38.0,36.0,29.99,North,0,0.0,-999.0,92,-99.99,,,-99.99,0.160000,,2013-04-02 12:52:00,
2013-04-02 07:00:00,38.0,37.0,30.00,North,0,0.0,-999.0,94,-99.99,,,-99.99,1.450000,,2013-04-02 13:00:00,
2013-04-02 07:52:00,38.0,37.0,30.00,North,0,0.0,-999.0,94,-99.99,,,-99.99,1.450000,,2013-04-02 13:52:00,
2013-04-02 08:00:00,39.0,37.0,30.01,North,0,0.0,-999.0,93,-99.99,,,-99.99,14.200000,,2013-04-02 14:00:00,
2013-04-02 08:52:00,39.0,37.0,30.01,North,0,0.0,-999.0,93,-99.99,,,-99.99,14.200000,,2013-04-02 14:52:00,
2013-04-02 09:00:00,39.0,37.0,30.02,North,0,0.0,-999.0,90,-99.99,,,-99.99,50.520000,,2013-04-02 15:00:00,
2013-04-02 09:57:00,39.0,37.0,30.02,North,0,0.0,-999.0,90,-99.99,,,-99.99,50.520000,,2013-04-02 15:57:00,
2013-04-02 10:00:00,40.0,38.0,30.03,North,0,0.0,-999.0,92,-99.99,,,-99.99,84.099998,,2013-04-02 16:00:00,
2013-04-02 10:53:00,40.0,38.0,30.03,North,0,0.0,-999.0,92,-99.99,,,-99.99,84.099998,,2013-04-02 16:53:00,
2013-04-02 11:00:00,41.0,37.0,30.04,North,0,0.0,-999.0,88,-99.99,,,-99.99,122.099998,,2013-04-02 17:00:00,
2013-04-02 11:55:00,41.0,37.0,30.04,North,0,0.0,-999.0,88,-99.99,,,-99.99,122.099998,,2013-04-02 17:55:00,
2013-04-02 12:00:00,41.0,38.0,30.06,North,0,0.0,-999.0,88,-99.99,,,-99.99,74.050003,,2013-04-02 18:00:00,
2013-04-02 12:56:00,41.0,38.0,30.06,North,0,0.0,-999.0,88,-99.99,,,-99.99,74.050003,,2013-04-02 18:56:00,
2013-04-02 13:00:00,44.0,39.0,30.05,North,0,0.0,-999.0,83,-99.99,,,-99.99,146.800003,,2013-04-02 19:00:00,
2013-04-02 13:55:00,44.0,39.0,30.05,North,0,0.0,-999.0,83,-99.99,,,-99.99,146.800003,,2013-04-02 19:55:00,
2013-04-02 14:00:00,47.0,40.0,30.04,North,4,1.0,-999.0,76,-99.99,,,-99.99,521.700012,,2013-04-02 20:00:00,
2013-04-02 14:54:00,47.0,40.0,30.04,North,4,1.0,-999.0,76,-99.99,,,-99.99,521.700012,,2013-04-02 20:54:00,
2013-04-02 15:00:00,51.0,43.0,30.03,NNW,345,3.0,-999.0,75,-99.99,,,-99.99,497.100006,,2013-04-02 21:00:00,
2013-04-02 15:55:00,51.0,43.0,30.03,NNW,345,3.0,-999.0,75,-99.99,,,-99.99,497.100006,,2013-04-02 21:55:00,
2013-04-02 16:00:00,51.0,40.0,30.02,North,0,7.0,-999.0,66,-99.99,,,-99.99,503.399994,,2013-04-02 22:00:00,
2013-04-02 16:53:00,51.0,40.0,30.02,North,0,7.0,-999.0,66,-99.99,,,-99.99,503.399994,,2013-04-02 22:53:00,
2013-04-02 17:00:00,55.0,39.0,30.01,North,359,8.0,-999.0,54,-99.99,,,-99.99,597.700012,,2013-04-02 23:00:00,
2013-04-02 17:54:00,55.0,39.0,30.01,North,359,8.0,-999.0,54,-99.99,,,-99.99,597.700012,,2013-04-02 23:54:00,
2013-04-02 18:00:00,55.0,36.0,30.01,North,351,7.0,11.0,48,-99.99,,,-99.99,413.500000,,2013-04-03 00:00:00,
2013-04-02 18:55:00,55.0,36.0,30.01,North,351,7.0,11.0,48,-99.99,,,-99.99,413.500000,,2013-04-03 00:55:00,
2013-04-02 19:00:00,54.0,36.0,30.02,NNW,346,5.0,-999.0,50,-99.99,,,-99.99,223.300003,,2013-04-03 01:00:00,
2013-04-02 19:53:00,54.0,36.0,30.02,NNW,346,5.0,-999.0,50,-99.99,,,-99.99,223.300003,,2013-04-03 01:53:00,
2013-04-02 20:00:00,50.0,38.0,30.04,NNW,337,2.0,-999.0,64,-99.99,,,-99.99,45.029999,,2013-04-03 02:00:00,
2013-04-02 20:53:00,50.0,38.0,30.04,NNW,337,2.0,-999.0,64,-99.99,,,-99.99,45.029999,,2013-04-03 02:53:00,
2013-04-02 21:00:00,42.0,37.0,30.05,North,0,0.0,-999.0,82,-99.99,,,-99.99,0.100000,,2013-04-03 03:00:00,
2013-04-02 21:54:00,42.0,37.0,30.05,North,0,0.0,-999.0,82,-99.99,,,-99.99,0.100000,,2013-04-03 03:54:00,
2013-04-02 22:00:00,42.0,36.0,30.08,North,0,0.0,-999.0,80,-99.99,,,-99.99,0.000000,,2013-04-03 04:00:00,
2013-04-02 22:53:00,42.0,36.0,30.08,North,0,0.0,-999.0,80,-99.99,,,-99.99,0.000000,,2013-04-03 04:53:00,
2013-04-02 23:00:00,40.0,36.0,30.10,North,0,0.0,-999.0,84,-99.99,,,-99.99,0.000000,,2013-04-03 05:00:00,
2013-04-02 23:52:00,40.0,36.0,30.10,North,0,0.0,-999.0,84,-99.99,,,-99.99,0.000000,,2013-04-03 05:52:00,